• Join FlightAware (Why Join?)
  • Login
  • US Flag 
02:06PM EDT


 

Airport Tracker/Info


-or-


 

Live Flight TrackerFlight Track Log ✈ GUG717 ✈ 21-Jun-2013 ✈ MNMG / MGA - MROC / SJO

Flight Track Log - Related Links

Times and Time Zones

All times are in EDT time to prevent confusion due to time zone crossing. See the GUG717 flight status page for this flight to view local times or setup timezone preferences in your user account.

Time Position Orientation Groundspeed Altitude Reporting Facility
EDT Latitude Longitude Course Direction KTS MPH feet Rate Location/Type
06:46PM 11.7455 -85.8038 138° Southeast  Level Estimated
06:47PM 11.7059 -85.7674 138° Southeast  Level Estimated
06:48PM 11.6663 -85.7311 138° Southeast  Level Estimated
06:49PM 11.6266 -85.6947 138° Southeast  Level Estimated
06:50PM 11.5870 -85.6584 138° Southeast  Level Estimated
06:51PM 11.5474 -85.6220 138° Southeast  Level Estimated
06:52PM 11.5077 -85.5857 138° Southeast  Level Estimated
06:53PM 11.4681 -85.5494 138° Southeast  Level Estimated
06:54PM 11.4284 -85.5131 138° Southeast  Level Estimated
06:55PM 11.3888 -85.4768 138° Southeast  Level Estimated
06:56PM 11.3491 -85.4405 138° Southeast  Level Estimated
06:57PM 11.3094 -85.4042 138° Southeast  Level Estimated
06:58PM 11.2697 -85.3679 138° Southeast  Level Estimated
06:59PM 11.2301 -85.3317 138° Southeast  Level Estimated
07:00PM 11.1904 -85.2954 138° Southeast  Level Estimated
07:01PM 11.1507 -85.2592 138° Southeast  Level Estimated
07:02PM 11.1110 -85.2230 138° Southeast  Level Estimated
07:03PM 11.0713 -85.1868 138° Southeast  Level Estimated
07:04PM 11.0316 -85.1505 138° Southeast  Level Estimated
07:05PM 10.9919 -85.1143 138° Southeast  Level Estimated
07:06PM 10.9522 -85.0781 138° Southeast  Level Estimated
07:07PM 10.9125 -85.0420 138° Southeast  Level Estimated
07:08PM 10.8728 -85.0058 138° Southeast  Level Estimated
07:09PM 10.8331 -84.9696 138° Southeast  Level Estimated
07:10PM 10.7933 -84.9335 138° Southeast  Level Estimated
07:11PM 10.7536 -84.8973 138° Southeast  Level Estimated
07:12PM 10.7139 -84.8612 138° Southeast  Level Estimated
07:13PM 10.6741 -84.8251 138° Southeast  Level Estimated
07:14PM 10.6344 -84.7890 138° Southeast  Level Estimated
07:15PM 10.5946 -84.7529 138° Southeast  Level Estimated
07:16PM 10.5549 -84.7168 138° Southeast  Level Estimated
07:17PM 10.5151 -84.6807 138° Southeast  Level Estimated
07:18PM 10.4754 -84.6447 138° Southeast  Level Estimated
07:19PM 10.4356 -84.6086 138° Southeast  Level Estimated
07:20PM 10.3959 -84.5725 138° Southeast  Level Estimated
07:21PM 10.3561 -84.5365 138° Southeast  Level Estimated
07:22PM 10.3163 -84.5005 138° Southeast  Level Estimated
07:23PM 10.2765 -84.4644 138° Southeast  Level Estimated
07:24PM 10.2367 -84.4284 138° Southeast  Level Estimated
07:25PM 10.1970 -84.3924 138° Southeast  Level Estimated
07:26PM 10.1572 -84.3564 138° Southeast  Level Estimated
07:27PM 10.1174 -84.3204 138° Southeast  Level Estimated
07:28PM 10.0776 -84.2844 138° Southeast  Level Estimated
07:29PM 10.0378 -84.2485 138° Southeast  Level Estimated
07:30PM 9.9980 -84.2125 138° Southeast  Level Estimated
07:31PM 9.9939 -84.2088 138° Southeast  Level Estimated
07:32PM 9.9939 -84.2088 76° East  Level Estimated
07:33PM 9.9939 -84.2088 76° East  Level Estimated
07:34PM 9.9939 -84.2088 76° East  Level Estimated
07:35PM 9.9939 -84.2088 76° East  Level Estimated
07:36PM 9.9939 -84.2088 76° East  Level Estimated
07:37PM 9.9939 -84.2088 76° East  Level Estimated
07:38PM 9.9939 -84.2088 76° East  Level Estimated
07:39PM 9.9939 -84.2088 76° East  Level Estimated